FDX444 KAFW-KEWR
Flight info
| Callsign | FDX444 |
|---|---|
| Flight time | N/A |
| Altitude | 35000 |
| Route | KUSSO1 LOOSE MEMFS Q29 DORET J584 SLT FQM3 |
| Aircraft | B752/M-SDE2E3FGHIJ3J4J7RWXY/LB1 |
Departure
| Time | 2026-04-24 16:15 |
|---|---|
| Airport | Perot Field/Fort Worth Alliance Airport (KAFW) |
Arrival
| Time | N/A |
|---|---|
| Airport | Newark Liberty International Airport (KEWR) |
| Time | Latitude | Longitude | Altitude | Speed | Heading |
|---|---|---|---|---|---|
| 2026-04-24 15:55 | 32.97684 | -97.31963 | 675 ft | 0 kts | 350° |
| 2026-04-24 16:06 | 32.97707 | -97.31968 | 675 ft | 4 kts | 352° |
| 2026-04-24 16:06 | 32.97725 | -97.31966 | 675 ft | 5 kts | 7° |
| 2026-04-24 16:06 | 32.97838 | -97.31951 | 678 ft | 7 kts | 4° |
| 2026-04-24 16:07 | 32.97886 | -97.31950 | 680 ft | 6 kts | 359° |
| 2026-04-24 16:07 | 32.97920 | -97.31951 | 681 ft | 4 kts | 355° |
| 2026-04-24 16:07 | 32.97992 | -97.31965 | 684 ft | 4 kts | 351° |
| 2026-04-24 16:08 | 32.98040 | -97.31971 | 685 ft | 8 kts | 7° |
| 2026-04-24 16:08 | 32.98102 | -97.31763 | 685 ft | 15 kts | 81° |
| 2026-04-24 16:09 | 32.98179 | -97.31547 | 685 ft | 15 kts | 7° |
| 2026-04-24 16:09 | 32.98283 | -97.31561 | 687 ft | 13 kts | 351° |
| 2026-04-24 16:09 | 32.98351 | -97.31575 | 689 ft | 17 kts | 349° |
| 2026-04-24 16:09 | 32.98563 | -97.31618 | 694 ft | 28 kts | 350° |
| 2026-04-24 16:10 | 32.99058 | -97.31718 | 703 ft | 15 kts | 348° |
| 2026-04-24 16:11 | 32.99296 | -97.31766 | 708 ft | 24 kts | 351° |
| 2026-04-24 16:11 | 32.99475 | -97.31804 | 709 ft | 17 kts | 348° |
| 2026-04-24 16:11 | 32.99582 | -97.31825 | 712 ft | 18 kts | 352° |
| 2026-04-24 16:12 | 32.99934 | -97.31894 | 714 ft | 28 kts | 349° |
| 2026-04-24 16:12 | 33.00129 | -97.31933 | 707 ft | 28 kts | 352° |
| 2026-04-24 16:12 | 33.00427 | -97.31994 | 699 ft | 23 kts | 352° |
| 2026-04-24 16:13 | 33.00531 | -97.32023 | 697 ft | 9 kts | 319° |
| 2026-04-24 16:13 | 33.00536 | -97.32111 | 699 ft | 5 kts | 253° |
| 2026-04-24 16:14 | 33.00502 | -97.32307 | 703 ft | 10 kts | 227° |
| 2026-04-24 16:14 | 33.00408 | -97.32321 | 705 ft | 19 kts | 172° |
| 2026-04-24 16:14 | 32.99293 | -97.32089 | 721 ft | 159 kts | 168° |
| 2026-04-24 16:15 | 32.98518 | -97.31921 | 1037 ft | 183 kts | 171° |
| 2026-04-24 16:15 | 32.96073 | -97.30386 | 2535 ft | 186 kts | 107° |
| 2026-04-24 16:16 | 32.96154 | -97.27059 | 2677 ft | 223 kts | 103° |
| 2026-04-24 16:16 | 32.95652 | -97.25217 | 2722 ft | 245 kts | 108° |
| 2026-04-24 16:17 | 32.94369 | -97.19196 | 4019 ft | 254 kts | 102° |
| 2026-04-24 16:17 | 32.93636 | -97.15068 | 4866 ft | 257 kts | 101° |
| 2026-04-24 16:18 | 32.92915 | -97.10872 | 5667 ft | 260 kts | 101° |
| 2026-04-24 16:18 | 32.92190 | -97.06619 | 6401 ft | 263 kts | 101° |
| 2026-04-24 16:18 | 32.91828 | -97.04493 | 6745 ft | 264 kts | 101° |
| 2026-04-24 16:19 | 32.91095 | -97.00195 | 7394 ft | 267 kts | 101° |
| 2026-04-24 16:19 | 32.90723 | -96.98013 | 7702 ft | 268 kts | 101° |
| 2026-04-24 16:20 | 32.89978 | -96.93656 | 8275 ft | 270 kts | 101° |
| 2026-04-24 16:20 | 32.89228 | -96.89273 | 8800 ft | 272 kts | 101° |
| 2026-04-24 16:20 | 32.88850 | -96.87071 | 9045 ft | 273 kts | 101° |
| 2026-04-24 16:21 | 32.88084 | -96.82613 | 9507 ft | 275 kts | 101° |
| 2026-04-24 16:21 | 32.87699 | -96.80377 | 9721 ft | 276 kts | 101° |
| 2026-04-24 16:21 | 32.87315 | -96.78147 | 9925 ft | 277 kts | 101° |
| 2026-04-24 16:22 | 32.86929 | -96.75913 | 10118 ft | 278 kts | 101° |
| 2026-04-24 16:22 | 32.86143 | -96.71363 | 10271 ft | 288 kts | 101° |
| 2026-04-24 16:22 | 32.85731 | -96.68988 | 10367 ft | 292 kts | 101° |
| 2026-04-24 16:23 | 32.85321 | -96.66618 | 10375 ft | 298 kts | 101° |
| 2026-04-24 16:23 | 32.84894 | -96.64158 | 10381 ft | 305 kts | 101° |
| 2026-04-24 16:23 | 32.84464 | -96.61679 | 10386 ft | 311 kts | 101° |
| 2026-04-24 16:24 | 32.83834 | -96.56504 | 10401 ft | 321 kts | 92° |
| 2026-04-24 16:24 | 32.83722 | -96.53848 | 10405 ft | 326 kts | 92° |
| 2026-04-24 16:24 | 32.83599 | -96.51121 | 10408 ft | 330 kts | 92° |
| 2026-04-24 16:24 | 32.83476 | -96.48391 | 10410 ft | 334 kts | 92° |
| 2026-04-24 16:25 | 32.83474 | -96.45614 | 10417 ft | 337 kts | 82° |
| 2026-04-24 16:25 | 32.84097 | -96.42966 | 10440 ft | 339 kts | 64° |
| 2026-04-24 16:25 | 32.85338 | -96.40561 | 10459 ft | 341 kts | 54° |
| 2026-04-24 16:26 | 32.88122 | -96.35992 | 10463 ft | 345 kts | 53° |
| 2026-04-24 16:26 | 32.89499 | -96.33628 | 10460 ft | 347 kts | 60° |
| 2026-04-24 16:26 | 32.91360 | -96.28316 | 10466 ft | 348 kts | 69° |
| 2026-04-24 16:27 | 32.92240 | -96.25629 | 10466 ft | 349 kts | 69° |
| 2026-04-24 16:27 | 32.93116 | -96.22938 | 10466 ft | 350 kts | 69° |
| 2026-04-24 16:27 | 32.93984 | -96.20267 | 10466 ft | 350 kts | 69° |
| 2026-04-24 16:27 | 32.94854 | -96.17583 | 10545 ft | 347 kts | 69° |
| 2026-04-24 16:28 | 32.95721 | -96.14904 | 10544 ft | 347 kts | 69° |
| 2026-04-24 16:28 | 32.96596 | -96.12202 | 10544 ft | 346 kts | 69° |
| 2026-04-24 16:28 | 32.98315 | -96.06882 | 10542 ft | 344 kts | 69° |
| 2026-04-24 16:29 | 32.99173 | -96.04220 | 10541 ft | 343 kts | 69° |
| 2026-04-24 16:29 | 33.00016 | -96.01606 | 10540 ft | 341 kts | 69° |
| 2026-04-24 16:29 | 33.01699 | -95.96378 | 10535 ft | 338 kts | 69° |
| 2026-04-24 16:30 | 33.03305 | -95.91376 | 11412 ft | 303 kts | 69° |
| 2026-04-24 16:30 | 33.04034 | -95.89103 | 11888 ft | 283 kts | 69° |
| 2026-04-24 16:30 | 33.04709 | -95.87000 | 12195 ft | 269 kts | 69° |
| 2026-04-24 16:31 | 33.05376 | -95.84920 | 12041 ft | 274 kts | 69° |
| 2026-04-24 16:31 | 33.06064 | -95.82776 | 12010 ft | 272 kts | 69° |
| 2026-04-24 16:31 | 33.06397 | -95.81731 | 11988 ft | 272 kts | 65° |
| 2026-04-24 16:31 | 33.07056 | -95.79664 | 11975 ft | 266 kts | 64° |
| 2026-04-24 16:32 | 33.07495 | -95.78300 | 11961 ft | 260 kts | 64° |
| 2026-04-24 16:32 | 33.08347 | -95.75652 | 11948 ft | 253 kts | 64° |
| 2026-04-24 16:32 | 33.08972 | -95.73702 | 11936 ft | 248 kts | 64° |
| 2026-04-24 16:32 | 33.09579 | -95.71815 | 11919 ft | 241 kts | 63° |
| 2026-04-24 16:33 | 33.10170 | -95.69993 | 11896 ft | 230 kts | 63° |
| 2026-04-24 16:33 | 33.10730 | -95.68240 | 11876 ft | 221 kts | 63° |
| 2026-04-24 16:33 | 33.11259 | -95.66569 | 11858 ft | 213 kts | 63° |
| 2026-04-24 16:33 | 33.11783 | -95.64911 | 11705 ft | 213 kts | 62° |
| 2026-04-24 16:34 | 33.12378 | -95.63203 | 11128 ft | 236 kts | 60° |
| 2026-04-24 16:34 | 33.13039 | -95.61353 | 10629 ft | 248 kts | 65° |
| 2026-04-24 16:34 | 33.13574 | -95.59407 | 10279 ft | 256 kts | 74° |
| 2026-04-24 16:34 | 33.14150 | -95.57411 | 9823 ft | 256 kts | 52° |
| 2026-04-24 16:35 | 33.15125 | -95.55647 | 9563 ft | 257 kts | 56° |
| 2026-04-24 16:35 | 33.16013 | -95.53741 | 8850 ft | 278 kts | 56° |
| 2026-04-24 16:35 | 33.17366 | -95.52110 | 8363 ft | 274 kts | 14° |
| 2026-04-24 16:35 | 33.19120 | -95.52350 | 7708 ft | 264 kts | 317° |
| 2026-04-24 16:36 | 33.19894 | -95.54118 | 7813 ft | 225 kts | 267° |
| 2026-04-24 16:36 | 33.19691 | -95.55930 | 7487 ft | 229 kts | 257° |
| 2026-04-24 16:36 | 33.19421 | -95.57862 | 6710 ft | 249 kts | 261° |
| 2026-04-24 16:36 | 33.19303 | -95.59943 | 6092 ft | 263 kts | 265° |
| 2026-04-24 16:37 | 33.19237 | -95.62224 | 4835 ft | 295 kts | 257° |
| 2026-04-24 16:37 | 33.17753 | -95.63452 | 2765 ft | 309 kts | 158° |
| 2026-04-24 16:37 | 33.16993 | -95.62188 | 2352 ft | 291 kts | 101° |
| 2026-04-24 16:37 | 33.16985 | -95.59466 | 3156 ft | 204 kts | 68° |
| 2026-04-24 16:38 | 33.17891 | -95.58400 | 3283 ft | 172 kts | 19° |
| 2026-04-24 16:38 | 33.19009 | -95.58431 | 3007 ft | 168 kts | 334° |
| 2026-04-24 16:38 | 33.19847 | -95.59335 | 2677 ft | 164 kts | 283° |
| 2026-04-24 16:38 | 33.19844 | -95.60686 | 2291 ft | 164 kts | 250° |
| 2026-04-24 16:39 | 33.19210 | -95.61723 | 1861 ft | 155 kts | 199° |
| 2026-04-24 16:39 | 33.18154 | -95.61756 | 1205 ft | 161 kts | 175° |
| 2026-04-24 16:39 | 33.17036 | -95.61910 | 668 ft | 160 kts | 187° |
| 2026-04-24 16:39 | 33.16035 | -95.62100 | 511 ft | 131 kts | 186° |
| 2026-04-24 16:40 | 33.15376 | -95.62232 | 499 ft | 38 kts | 187° |
| 2026-04-24 16:40 | 33.15339 | -95.62238 | 499 ft | 0 kts | 186° |